Time;durP1;ratioP1;P1;durP2;ratioP2;P2;SDS_P1;SDS_P2;PMS_P1;PMS_P2;Temp;Humidity;BMP_temperature;BMP_pressure;BME280_temperature;BME280_humidity;BME280_pressure;Samples;Min_cycle;Max_cycle;Signal;HPM_P1;HPM_P2
2021/05/19 00:00:40;;;;;;;7.50;6.00;;;7.90;99.90;;;;;;474011;247;28030;-80
2021/05/19 00:02:41;;;;;;;8.53;4.97;;;7.80;99.90;;;;;;474036;248;27971;-79
2021/05/19 00:04:43;;;;;;;5.27;4.83;;;7.70;99.90;;;;;;474042;246;27697;-79
2021/05/19 00:06:44;;;;;;;6.07;5.00;;;7.70;99.90;;;;;;472191;248;28512;-71
2021/05/19 00:08:45;;;;;;;7.73;5.17;;;7.70;99.90;;;;;;480563;245;27842;-71
2021/05/19 00:10:46;;;;;;;5.93;5.20;;;7.70;99.90;;;;;;484009;245;27989;-72
2021/05/19 00:12:48;;;;;;;6.90;5.37;;;7.70;99.90;;;;;;482551;246;27846;-73
2021/05/19 00:14:49;;;;;;;7.80;5.43;;;7.70;99.90;;;;;;482623;246;27948;-72
2021/05/19 00:16:50;;;;;;;6.37;5.77;;;7.60;99.90;;;;;;482622;246;27744;-72
2021/05/19 00:18:51;;;;;;;7.07;5.67;;;7.60;99.90;;;;;;482580;246;28046;-72
2021/05/19 00:20:53;;;;;;;9.67;6.77;;;7.60;99.90;;;;;;482584;246;28288;-72
2021/05/19 00:22:54;;;;;;;6.43;5.30;;;7.40;99.90;;;;;;482585;246;27753;-72
2021/05/19 00:24:55;;;;;;;6.70;5.57;;;7.40;99.90;;;;;;482560;246;27975;-72
2021/05/19 00:26:56;;;;;;;5.20;4.80;;;7.50;99.90;;;;;;482587;246;27839;-72
2021/05/19 00:28:58;;;;;;;7.60;5.30;;;7.40;99.90;;;;;;482615;246;27823;-72
2021/05/19 00:31:02;;;;;;;8.47;6.40;;;7.40;99.90;;;;;;482624;246;27932;-73
2021/05/19 00:33:00;;;;;;;7.03;6.33;;;7.40;99.90;;;;;;482401;246;27960;-72
2021/05/19 00:35:01;;;;;;;8.50;5.63;;;7.40;99.90;;;;;;482592;246;28058;-73
2021/05/19 00:37:03;;;;;;;8.80;6.10;;;7.40;99.90;;;;;;482621;246;28513;-72
2021/05/19 00:39:04;;;;;;;7.27;6.57;;;7.40;99.90;;;;;;484085;237;28435;-72
2021/05/19 00:41:05;;;;;;;7.00;6.30;;;7.30;99.90;;;;;;484339;245;28493;-72
2021/05/19 00:43:06;;;;;;;6.67;6.07;;;7.30;99.90;;;;;;484342;242;28371;-72
2021/05/19 00:45:08;;;;;;;6.67;6.03;;;7.30;99.90;;;;;;484341;245;28583;-72
2021/05/19 00:47:09;;;;;;;10.40;8.40;;;7.30;99.90;;;;;;484282;245;27944;-72
2021/05/19 00:49:10;;;;;;;10.90;7.90;;;7.20;99.90;;;;;;468016;245;27964;-72
2021/05/19 00:51:11;;;;;;;9.33;7.63;;;7.20;99.90;;;;;;467120;251;27726;-72
2021/05/19 00:53:13;;;;;;;10.10;6.93;;;7.20;99.90;;;;;;467189;254;27905;-72
2021/05/19 00:55:14;;;;;;;6.70;5.83;;;7.20;99.90;;;;;;475527;249;27883;-74
2021/05/19 00:59:26;;;;;;;5.57;4.97;;;7.10;99.90;;;;;;482356;246;28547;-72
2021/05/19 01:01:29;;;;;;;5.20;4.70;;;7.00;99.90;;;;;;483281;245;28121;-73
2021/05/19 01:03:28;;;;;;;10.40;6.40;;;7.00;99.90;;;;;;483140;246;28030;-71
2021/05/19 01:05:39;;;;;;;7.57;6.33;;;6.80;99.90;;;;;;483246;245;27544;-72
2021/05/19 01:07:37;;;;;;;9.20;6.57;;;6.80;99.90;;;;;;483134;237;27899;-73
2021/05/19 01:09:35;;;;;;;6.83;5.27;;;6.90;99.90;;;;;;488370;243;27991;-72
2021/05/19 01:11:36;;;;;;;8.63;6.43;;;7.00;99.90;;;;;;482693;246;27808;-72
2021/05/19 01:13:37;;;;;;;5.93;5.33;;;7.00;99.90;;;;;;482710;246;27848;-73
2021/05/19 01:15:39;;;;;;;6.83;5.03;;;7.00;99.90;;;;;;482649;244;27641;-73
2021/05/19 01:17:40;;;;;;;7.10;5.77;;;7.10;99.90;;;;;;482663;246;28065;-72
2021/05/19 01:19:41;;;;;;;6.63;5.80;;;7.10;99.90;;;;;;482657;246;27852;-72
2021/05/19 01:21:43;;;;;;;10.03;5.70;;;7.00;99.90;;;;;;482612;246;28443;-72
2021/05/19 01:23:44;;;;;;;8.77;6.90;;;7.00;99.90;;;;;;482703;246;28420;-72
2021/05/19 01:25:45;;;;;;;11.03;7.63;;;7.00;99.90;;;;;;482661;246;28060;-72
2021/05/19 01:27:46;;;;;;;7.10;6.40;;;7.00;99.90;;;;;;482622;246;27969;-72
2021/05/19 01:29:47;;;;;;;12.50;9.87;;;7.00;99.90;;;;;;482658;246;28227;-73
2021/05/19 01:31:49;;;;;;;10.90;7.73;;;7.00;99.90;;;;;;482664;246;27852;-73
2021/05/19 01:33:50;;;;;;;9.70;8.00;;;7.10;99.90;;;;;;482662;246;27781;-72
2021/05/19 01:35:51;;;;;;;7.00;6.30;;;7.10;99.90;;;;;;482709;245;27658;-71
2021/05/19 01:37:52;;;;;;;6.87;6.17;;;7.10;99.90;;;;;;482713;246;27955;-72
2021/05/19 01:39:54;;;;;;;7.63;6.57;;;7.00;99.90;;;;;;482698;246;27565;-73
2021/05/19 01:41:55;;;;;;;7.30;6.60;;;7.10;99.90;;;;;;482646;244;27660;-72
2021/05/19 01:43:56;;;;;;;6.70;6.00;;;7.10;99.90;;;;;;482654;246;27843;-72
2021/05/19 01:45:57;;;;;;;7.03;6.33;;;7.10;99.90;;;;;;482652;244;27863;-72
2021/05/19 01:47:59;;;;;;;6.70;6.10;;;7.10;99.90;;;;;;482650;246;27839;-72
2021/05/19 01:50:00;;;;;;;7.60;6.30;;;7.10;99.90;;;;;;482654;246;27770;-73
2021/05/19 01:52:01;;;;;;;7.43;6.40;;;7.10;99.90;;;;;;482694;246;27877;-72
2021/05/19 01:54:02;;;;;;;8.27;6.83;;;7.10;99.90;;;;;;482660;246;27983;-72
2021/05/19 01:56:04;;;;;;;8.40;7.10;;;7.20;99.90;;;;;;482647;246;27736;-72
2021/05/19 01:58:05;;;;;;;11.00;8.87;;;7.20;99.90;;;;;;482654;246;28365;-72
2021/05/19 02:00:06;;;;;;;14.23;9.97;;;7.20;99.90;;;;;;482638;246;28324;-74
2021/05/19 02:02:07;;;;;;;8.30;7.17;;;7.20;99.90;;;;;;482650;244;28111;-72
2021/05/19 02:04:09;;;;;;;9.20;7.97;;;7.20;99.90;;;;;;482702;246;28252;-73
2021/05/19 02:06:10;;;;;;;9.00;6.70;;;7.30;99.90;;;;;;482705;246;27784;-72
2021/05/19 02:08:11;;;;;;;8.80;7.90;;;7.30;99.90;;;;;;482706;246;27433;-72
2021/05/19 02:10:12;;;;;;;10.07;7.80;;;7.40;99.90;;;;;;482707;246;27427;-73
2021/05/19 02:12:14;;;;;;;8.37;7.27;;;7.40;99.90;;;;;;482631;246;27983;-72
2021/05/19 02:14:15;;;;;;;9.50;7.97;;;7.40;99.90;;;;;;482654;246;27822;-72
2021/05/19 02:16:16;;;;;;;11.23;8.80;;;7.40;99.90;;;;;;482667;246;27658;-72
2021/05/19 02:18:17;;;;;;;10.30;8.50;;;7.50;99.90;;;;;;482652;244;27431;-72
2021/05/19 02:20:19;;;;;;;9.27;8.10;;;7.50;99.90;;;;;;482638;246;27874;-72
2021/05/19 02:22:20;;;;;;;11.33;8.20;;;7.50;99.90;;;;;;482697;244;27646;-72
2021/05/19 02:24:21;;;;;;;9.33;7.47;;;7.50;99.90;;;;;;482717;246;27451;-72
2021/05/19 02:26:22;;;;;;;12.67;10.10;;;7.50;99.90;;;;;;482696;246;27803;-73
2021/05/19 02:28:24;;;;;;;11.13;9.10;;;7.50;99.90;;;;;;482643;246;28208;-72
2021/05/19 02:30:30;;;;;;;11.60;9.73;;;7.50;99.90;;;;;;482658;246;28393;-73
2021/05/19 02:32:29;;;;;;;12.80;9.37;;;7.60;99.90;;;;;;482594;245;27781;-73
2021/05/19 02:34:30;;;;;;;11.97;9.20;;;7.60;99.90;;;;;;482668;246;27856;-72
2021/05/19 02:36:32;;;;;;;12.27;9.03;;;7.60;99.90;;;;;;482632;246;27785;-72
2021/05/19 02:38:34;;;;;;;12.60;9.67;;;7.60;99.90;;;;;;482656;246;27875;-72
2021/05/19 02:40:34;;;;;;;15.27;11.33;;;7.70;99.90;;;;;;482598;246;28115;-72
2021/05/19 02:42:35;;;;;;;15.40;12.13;;;7.70;99.90;;;;;;482659;246;28246;-72
2021/05/19 02:44:37;;;;;;;13.80;11.17;;;7.70;99.90;;;;;;482613;246;27764;-72
2021/05/19 02:46:38;;;;;;;17.33;11.70;;;7.70;99.90;;;;;;482657;246;28147;-73
2021/05/19 02:48:39;;;;;;;15.50;11.33;;;7.70;99.90;;;;;;482688;244;27771;-73
2021/05/19 02:50:40;;;;;;;14.27;10.40;;;7.70;99.90;;;;;;482699;246;27763;-72
2021/05/19 02:52:42;;;;;;;20.47;13.53;;;7.70;99.90;;;;;;482677;246;27832;-73
2021/05/19 02:54:43;;;;;;;15.90;12.10;;;7.70;99.90;;;;;;482637;246;27538;-72
2021/05/19 02:56:44;;;;;;;19.60;12.17;;;7.70;99.90;;;;;;482621;246;28444;-73
2021/05/19 02:58:45;;;;;;;13.83;10.77;;;7.70;99.90;;;;;;482646;246;28162;-72
2021/05/19 03:00:47;;;;;;;12.40;9.83;;;7.70;99.90;;;;;;482633;246;28330;-72
2021/05/19 03:02:48;;;;;;;13.67;9.77;;;7.70;99.90;;;;;;482632;246;27419;-73
2021/05/19 03:04:49;;;;;;;13.90;10.77;;;7.70;99.90;;;;;;482658;246;27656;-73
2021/05/19 03:06:50;;;;;;;16.10;11.90;;;7.80;99.90;;;;;;482673;245;27870;-73
2021/05/19 03:08:52;;;;;;;18.00;12.00;;;7.80;99.90;;;;;;482628;246;27974;-72
2021/05/19 03:10:53;;;;;;;14.30;12.00;;;7.70;99.90;;;;;;482627;246;27957;-72
2021/05/19 03:12:55;;;;;;;21.90;13.43;;;7.80;99.90;;;;;;482647;246;27705;-74
2021/05/19 03:14:56;;;;;;;14.47;10.57;;;7.80;99.90;;;;;;482654;245;27540;-72
2021/05/19 03:17:01;;;;;;;16.50;11.70;;;7.80;99.90;;;;;;482695;246;28320;-73
2021/05/19 03:18:59;;;;;;;15.83;12.30;;;7.80;99.90;;;;;;465478;245;28066;-72
2021/05/19 03:21:02;;;;;;;14.07;10.90;;;7.80;99.90;;;;;;464735;256;27894;-72
2021/05/19 03:23:02;;;;;;;16.77;12.63;;;7.70;99.90;;;;;;466160;254;27952;-72
2021/05/19 03:25:03;;;;;;;16.60;12.73;;;7.80;99.90;;;;;;468299;254;27469;-72
2021/05/19 03:27:04;;;;;;;15.67;11.70;;;7.80;99.90;;;;;;468254;253;28414;-72
2021/05/19 03:29:05;;;;;;;13.33;11.07;;;7.80;99.90;;;;;;468198;254;28258;-72
2021/05/19 03:31:07;;;;;;;13.90;11.53;;;7.80;99.90;;;;;;468427;250;28484;-72
2021/05/19 03:33:08;;;;;;;17.40;12.30;;;7.80;99.90;;;;;;468391;254;27931;-72
2021/05/19 03:35:09;;;;;;;14.87;11.70;;;7.80;99.90;;;;;;468361;254;27945;-71
2021/05/19 03:37:10;;;;;;;14.70;11.70;;;7.80;99.90;;;;;;468366;254;27923;-73
2021/05/19 03:39:12;;;;;;;20.63;13.80;;;7.80;99.90;;;;;;468353;254;27938;-73
2021/05/19 03:41:13;;;;;;;15.43;11.63;;;7.80;99.90;;;;;;468365;254;27813;-73
2021/05/19 03:43:14;;;;;;;15.37;12.17;;;7.70;99.90;;;;;;468361;254;27702;-72
2021/05/19 03:45:15;;;;;;;15.93;12.80;;;7.80;99.90;;;;;;468400;254;28090;-71
2021/05/19 03:47:17;;;;;;;19.07;13.57;;;7.80;99.90;;;;;;468413;254;28402;-71
2021/05/19 03:49:18;;;;;;;21.13;13.40;;;7.80;99.90;;;;;;468399;253;28632;-71
2021/05/19 03:51:19;;;;;;;21.70;14.87;;;7.80;99.90;;;;;;468377;254;28325;-70
2021/05/19 03:53:20;;;;;;;15.00;11.00;;;7.70;99.90;;;;;;468383;254;27946;-71
2021/05/19 03:55:22;;;;;;;15.23;10.93;;;7.70;99.90;;;;;;468379;254;27947;-72
2021/05/19 03:57:23;;;;;;;13.90;11.20;;;7.70;99.90;;;;;;468378;254;28054;-71
2021/05/19 03:59:24;;;;;;;20.50;13.47;;;7.80;99.90;;;;;;468383;254;27876;-71
2021/05/19 04:01:25;;;;;;;18.13;13.70;;;7.70;99.90;;;;;;468423;250;27945;-72
2021/05/19 04:03:27;;;;;;;19.93;14.13;;;7.70;99.90;;;;;;468423;254;28250;-72
2021/05/19 04:05:31;;;;;;;18.47;12.70;;;7.70;99.90;;;;;;468424;254;28381;-72
2021/05/19 04:07:29;;;;;;;36.30;15.80;;;7.70;99.90;;;;;;468424;254;28280;-72
2021/05/19 04:09:31;;;;;;;25.60;15.40;;;7.70;99.90;;;;;;468371;254;27923;-72
2021/05/19 04:11:32;;;;;;;21.30;14.13;;;7.70;99.90;;;;;;468379;254;27680;-71
2021/05/19 04:13:33;;;;;;;26.00;14.60;;;7.60;99.90;;;;;;468442;254;27884;-70
2021/05/19 04:15:34;;;;;;;24.43;13.50;;;7.70;99.90;;;;;;468465;254;27822;-71
2021/05/19 04:17:36;;;;;;;24.50;13.30;;;7.60;99.90;;;;;;468367;254;28186;-71
2021/05/19 04:19:37;;;;;;;29.20;13.97;;;7.50;99.90;;;;;;472883;250;28011;-72
2021/05/19 04:21:38;;;;;;;20.27;13.40;;;7.60;99.90;;;;;;475304;250;28135;-72
2021/05/19 04:23:39;;;;;;;30.53;14.10;;;7.60;99.90;;;;;;475295;250;28346;-72
2021/05/19 04:25:41;;;;;;;33.87;15.27;;;7.60;99.90;;;;;;475318;250;28384;-71
2021/05/19 04:27:42;;;;;;;22.43;12.47;;;7.50;99.90;;;;;;475329;250;27915;-71
2021/05/19 04:29:43;;;;;;;26.33;14.57;;;7.60;99.90;;;;;;475303;250;28080;-71
2021/05/19 04:31:44;;;;;;;18.80;12.40;;;7.60;99.90;;;;;;475331;250;27771;-71
2021/05/19 04:33:46;;;;;;;20.10;12.50;;;7.70;99.90;;;;;;475318;250;27672;-71
2021/05/19 04:35:47;;;;;;;20.70;12.90;;;7.70;99.90;;;;;;475326;250;28089;-72
2021/05/19 04:37:48;;;;;;;23.97;13.60;;;7.70;99.90;;;;;;475316;250;28136;-71
2021/05/19 04:39:49;;;;;;;38.07;12.87;;;7.70;99.90;;;;;;475312;250;28456;-72
2021/05/19 04:41:51;;;;;;;29.23;11.43;;;7.70;99.90;;;;;;475325;250;28237;-71
2021/05/19 04:43:52;;;;;;;16.87;10.73;;;7.70;99.90;;;;;;475300;250;28367;-72
2021/05/19 04:45:53;;;;;;;23.70;13.10;;;7.70;99.90;;;;;;475315;250;28087;-74
2021/05/19 04:47:54;;;;;;;20.20;12.60;;;7.70;99.90;;;;;;480694;235;27938;-71
2021/05/19 04:49:56;;;;;;;26.07;13.20;;;7.80;99.90;;;;;;494688;240;27822;-71
2021/05/19 04:51:57;;;;;;;20.07;12.73;;;7.80;99.90;;;;;;494691;240;27818;-72
2021/05/19 04:53:58;;;;;;;22.40;13.73;;;7.90;99.90;;;;;;494694;240;27356;-71
2021/05/19 04:55:59;;;;;;;22.03;12.40;;;7.80;99.90;;;;;;494710;240;27686;-72
2021/05/19 04:58:01;;;;;;;23.20;13.40;;;7.90;99.90;;;;;;491167;235;28331;-71
2021/05/19 05:00:02;;;;;;;30.93;15.20;;;7.90;99.90;;;;;;483876;246;27996;-72
2021/05/19 05:02:03;;;;;;;24.37;13.73;;;7.90;99.90;;;;;;483865;246;28115;-71
2021/05/19 05:04:04;;;;;;;34.40;14.53;;;8.00;99.90;;;;;;483880;246;27973;-71
2021/05/19 05:06:06;;;;;;;29.67;15.87;;;8.00;99.90;;;;;;483878;246;27887;-73
2021/05/19 05:08:07;;;;;;;33.03;15.70;;;7.90;99.90;;;;;;482466;240;27533;-72
2021/05/19 05:10:08;;;;;;;27.10;14.80;;;8.00;99.90;;;;;;482385;246;27979;-72
2021/05/19 05:12:09;;;;;;;24.50;14.20;;;8.00;99.90;;;;;;482395;246;27861;-71
2021/05/19 05:14:11;;;;;;;27.23;14.07;;;8.00;99.90;;;;;;482389;246;27757;-71
2021/05/19 05:16:14;;;;;;;28.83;15.70;;;8.00;99.90;;;;;;482434;244;28098;-71
2021/05/19 05:18:13;;;;;;;28.43;16.13;;;8.10;99.90;;;;;;482426;246;28104;-71
2021/05/19 05:20:14;;;;;;;24.90;15.63;;;8.20;99.90;;;;;;482454;246;28211;-72
2021/05/19 05:22:16;;;;;;;24.77;14.20;;;8.20;99.90;;;;;;482450;246;27419;-71
2021/05/19 05:24:17;;;;;;;25.40;15.63;;;8.30;99.90;;;;;;482443;246;27748;-72
2021/05/19 05:26:19;;;;;;;21.60;12.70;;;8.40;99.90;;;;;;482381;246;27867;-71
2021/05/19 05:28:19;;;;;;;28.70;15.20;;;8.40;99.90;;;;;;481254;242;27846;-72
2021/05/19 05:30:21;;;;;;;27.40;15.57;;;8.40;99.90;;;;;;480566;247;27488;-72
2021/05/19 05:32:22;;;;;;;26.93;15.00;;;8.50;99.90;;;;;;480567;247;27980;-72
2021/05/19 05:34:23;;;;;;;28.83;15.70;;;8.40;99.90;;;;;;480589;247;28390;-71
2021/05/19 05:36:24;;;;;;;25.83;15.70;;;8.50;99.90;;;;;;480568;245;28914;-72
2021/05/19 05:38:26;;;;;;;27.70;16.03;;;8.50;99.90;;;;;;480249;239;28168;-71
2021/05/19 05:40:27;;;;;;;23.37;15.10;;;8.50;99.90;;;;;;479149;248;27827;-72
2021/05/19 05:42:28;;;;;;;22.50;14.63;;;8.40;99.90;;;;;;479153;248;27736;-71
2021/05/19 05:44:29;;;;;;;24.67;14.50;;;8.50;99.90;;;;;;479162;248;27926;-72
2021/05/19 05:46:31;;;;;;;22.97;14.70;;;8.40;99.90;;;;;;479199;248;27858;-72
2021/05/19 05:48:32;;;;;;;24.30;15.07;;;8.40;99.90;;;;;;480003;247;27904;-72
2021/05/19 05:50:33;;;;;;;22.53;14.13;;;8.40;99.90;;;;;;464390;254;27441;-72
2021/05/19 05:52:35;;;;;;;24.10;14.80;;;8.50;99.90;;;;;;466185;253;28487;-71
2021/05/19 05:54:36;;;;;;;22.80;14.37;;;8.40;99.90;;;;;;481580;245;28319;-71
2021/05/19 05:56:37;;;;;;;22.27;13.97;;;8.50;99.90;;;;;;481548;246;28089;-71
2021/05/19 05:58:38;;;;;;;20.37;13.73;;;8.50;99.90;;;;;;481543;245;27916;-71
2021/05/19 06:00:40;;;;;;;27.90;15.93;;;8.50;99.90;;;;;;481542;246;28070;-72
2021/05/19 06:02:41;;;;;;;24.83;15.60;;;8.50;99.90;;;;;;481523;246;27725;-70
2021/05/19 06:04:45;;;;;;;30.83;17.33;;;8.70;99.90;;;;;;481598;246;27958;-71
2021/05/19 06:06:43;;;;;;;25.50;16.40;;;8.80;99.90;;;;;;477620;246;28841;-71
2021/05/19 06:08:45;;;;;;;26.57;15.90;;;8.90;99.90;;;;;;475487;243;28059;-71
2021/05/19 06:10:46;;;;;;;24.50;14.67;;;9.00;99.90;;;;;;487530;243;27854;-71
2021/05/19 06:12:47;;;;;;;32.93;19.00;;;9.00;99.90;;;;;;487535;243;28059;-71
2021/05/19 06:14:48;;;;;;;28.63;17.13;;;9.00;99.90;;;;;;487546;243;28071;-72
2021/05/19 06:16:50;;;;;;;29.77;18.80;;;9.10;99.90;;;;;;487626;243;27998;-72
2021/05/19 06:18:51;;;;;;;30.40;18.77;;;9.00;99.90;;;;;;487584;242;27862;-71
2021/05/19 06:20:52;;;;;;;24.83;15.70;;;9.00;99.90;;;;;;487544;243;27960;-72
2021/05/19 06:22:53;;;;;;;24.10;15.70;;;9.10;99.90;;;;;;487615;243;27864;-71
2021/05/19 06:24:55;;;;;;;26.97;17.53;;;9.20;99.90;;;;;;487807;243;28508;-72
2021/05/19 06:26:56;;;;;;;23.50;16.20;;;9.10;99.90;;;;;;487725;243;28182;-72
2021/05/19 06:28:57;;;;;;;31.30;19.57;;;9.10;99.90;;;;;;487741;243;27602;-72
2021/05/19 06:30:58;;;;;;;26.57;16.80;;;9.10;99.90;;;;;;487715;243;27880;-75
2021/05/19 06:33:00;;;;;;;24.43;16.87;;;9.10;99.90;;;;;;487717;243;28050;-72
2021/05/19 06:35:01;;;;;;;21.17;14.47;;;9.20;99.90;;;;;;487754;243;27975;-72
2021/05/19 06:37:02;;;;;;;21.70;15.10;;;9.20;99.90;;;;;;487807;243;27811;-72
2021/05/19 06:39:03;;;;;;;22.20;15.57;;;9.30;99.90;;;;;;487815;243;28028;-72
2021/05/19 06:41:05;;;;;;;27.80;17.90;;;9.40;99.90;;;;;;487801;243;27974;-73
2021/05/19 06:43:06;;;;;;;23.27;15.90;;;9.30;99.90;;;;;;487727;243;28286;-71
2021/05/19 06:45:07;;;;;;;23.50;15.00;;;9.30;99.90;;;;;;487725;243;28460;-73
2021/05/19 06:47:08;;;;;;;22.30;16.10;;;9.30;99.90;;;;;;487708;243;27833;-72
2021/05/19 06:49:10;;;;;;;26.23;16.10;;;9.20;99.90;;;;;;487733;242;27851;-72
2021/05/19 06:51:11;;;;;;;25.00;16.50;;;9.20;99.90;;;;;;487725;243;28060;-72
2021/05/19 06:53:12;;;;;;;28.00;17.87;;;9.10;99.90;;;;;;487795;243;27842;-72
2021/05/19 06:55:14;;;;;;;22.33;15.60;;;8.90;99.90;;;;;;487789;242;27943;-72
2021/05/19 06:57:15;;;;;;;28.37;16.00;;;9.10;99.90;;;;;;487725;243;28035;-71
2021/05/19 06:59:17;;;;;;;25.20;15.40;;;9.10;99.90;;;;;;487732;243;27731;-73
2021/05/19 07:01:17;;;;;;;22.40;15.87;;;9.10;99.90;;;;;;487688;242;28529;-74
2021/05/19 07:03:18;;;;;;;24.33;16.50;;;9.10;99.90;;;;;;487700;242;28307;-74
2021/05/19 07:05:20;;;;;;;24.00;15.50;;;9.10;99.90;;;;;;487724;243;27962;-74
2021/05/19 07:07:21;;;;;;;26.93;16.40;;;9.20;99.90;;;;;;487715;243;27966;-74
2021/05/19 07:09:25;;;;;;;25.40;17.77;;;9.30;99.90;;;;;;487037;243;27505;-74
2021/05/19 07:11:23;;;;;;;22.10;15.90;;;9.20;99.90;;;;;;486344;244;27805;-74
2021/05/19 07:13:28;;;;;;;26.30;17.23;;;9.20;99.90;;;;;;484288;243;27810;-74
2021/05/19 07:15:32;;;;;;;23.40;15.10;;;9.30;99.90;;;;;;484043;245;27891;-73
2021/05/19 07:17:27;;;;;;;29.57;17.57;;;9.40;99.90;;;;;;484054;245;27789;-74
2021/05/19 07:19:28;;;;;;;22.03;15.17;;;9.50;99.90;;;;;;484039;245;28234;-74
2021/05/19 07:21:30;;;;;;;24.50;16.10;;;9.70;99.90;;;;;;484037;245;28451;-74
2021/05/19 07:23:31;;;;;;;23.00;16.07;;;9.70;99.90;;;;;;484024;245;27853;-74
2021/05/19 07:25:32;;;;;;;23.03;15.60;;;9.70;99.90;;;;;;484046;245;27526;-74
2021/05/19 07:27:33;;;;;;;24.80;14.83;;;9.80;99.90;;;;;;484063;245;27946;-74
2021/05/19 07:29:35;;;;;;;21.90;14.90;;;9.80;99.90;;;;;;484032;245;27999;-74
2021/05/19 07:31:36;;;;;;;21.80;16.10;;;9.90;99.90;;;;;;484021;245;27878;-74
2021/05/19 07:33:37;;;;;;;18.63;13.77;;;9.80;99.90;;;;;;484008;245;27988;-74
2021/05/19 07:35:39;;;;;;;24.80;16.53;;;9.70;99.90;;;;;;484010;245;28008;-74
2021/05/19 07:37:40;;;;;;;24.80;16.27;;;9.70;99.90;;;;;;484095;245;28568;-74
2021/05/19 07:39:41;;;;;;;24.03;16.50;;;10.00;99.90;;;;;;484065;245;28656;-74
2021/05/19 07:41:42;;;;;;;27.63;16.30;;;10.10;99.90;;;;;;484073;245;28208;-74
2021/05/19 07:43:44;;;;;;;19.40;13.70;;;10.00;99.90;;;;;;484066;245;28135;-73
2021/05/19 07:45:45;;;;;;;21.30;14.43;;;9.90;99.90;;;;;;477715;245;28024;-73
2021/05/19 07:47:46;;;;;;;23.93;14.00;;;9.90;99.90;;;;;;475116;250;28083;-73
2021/05/19 07:49:47;;;;;;;21.70;13.33;;;9.90;99.90;;;;;;468506;254;28511;-74
2021/05/19 07:51:49;;;;;;;20.93;14.70;;;9.80;99.90;;;;;;486071;245;28313;-74
2021/05/19 07:53:50;;;;;;;23.10;13.97;;;9.70;99.90;;;;;;475078;249;28588;-74
2021/05/19 07:56:06;;;;;;;19.03;13.37;;;9.60;99.90;;;;;;475071;250;28108;-74
2021/05/19 07:58:04;;;;;;;21.40;13.57;;;9.70;99.90;;;;;;474658;250;28543;-74
2021/05/19 08:02:12;;;;;;;18.00;11.40;;;10.00;99.90;;;;;;466185;250;28012;-74
2021/05/19 08:04:12;;;;;;;13.97;10.43;;;10.50;99.90;;;;;;474905;250;28215;-73
2021/05/19 08:06:12;;;;;;;19.00;11.13;;;10.70;99.90;;;;;;475128;250;27852;-74
2021/05/19 08:08:14;;;;;;;14.50;10.50;;;11.00;99.90;;;;;;475110;250;28879;-74
2021/05/19 08:10:15;;;;;;;15.80;10.17;;;11.00;99.90;;;;;;475014;250;28661;-74
2021/05/19 08:12:16;;;;;;;13.90;9.40;;;10.80;99.90;;;;;;475116;250;28091;-74
2021/05/19 08:14:17;;;;;;;14.13;9.10;;;10.70;99.90;;;;;;475060;250;28171;-74
2021/05/19 08:16:19;;;;;;;15.43;9.03;;;10.80;99.90;;;;;;475057;250;28116;-74
2021/05/19 08:18:24;;;;;;;13.50;9.07;;;11.10;99.90;;;;;;475057;250;28080;-73
2021/05/19 08:20:21;;;;;;;13.60;8.57;;;11.40;99.90;;;;;;474852;250;28061;-74
2021/05/19 08:22:22;;;;;;;14.63;9.47;;;11.50;99.90;;;;;;475036;250;29308;-74
2021/05/19 08:24:24;;;;;;;11.90;9.13;;;11.40;99.90;;;;;;475104;250;28797;-73
2021/05/19 08:26:25;;;;;;;14.00;10.00;;;11.00;99.90;;;;;;475057;250;28531;-73
2021/05/19 08:28:26;;;;;;;13.93;9.10;;;11.00;99.90;;;;;;475060;250;28101;-73
2021/05/19 08:30:27;;;;;;;12.20;8.37;;;11.10;99.90;;;;;;475035;250;28136;-74
2021/05/19 08:32:29;;;;;;;13.43;8.20;;;11.10;99.90;;;;;;475101;250;28101;-75
2021/05/19 08:34:30;;;;;;;17.30;9.37;;;10.90;99.90;;;;;;475097;250;28407;-74
2021/05/19 08:36:31;;;;;;;14.50;8.43;;;11.10;99.90;;;;;;475114;250;28181;-73
2021/05/19 08:38:35;;;;;;;10.33;7.83;;;11.30;99.90;;;;;;475097;250;28552;-73
2021/05/19 08:40:34;;;;;;;14.53;8.00;;;11.30;99.90;;;;;;474920;250;28850;-73
2021/05/19 08:42:35;;;;;;;13.43;8.90;;;11.10;99.90;;;;;;475112;250;28899;-75
2021/05/19 08:44:36;;;;;;;12.77;8.10;;;11.00;99.90;;;;;;475085;250;28462;-73
2021/05/19 08:46:39;;;;;;;17.37;9.07;;;;;;;;;;475071;250;28119;-73
2021/05/19 08:48:41;;;;;;;11.03;8.23;;;11.30;99.90;;;;;;475065;250;27074;-72
2021/05/19 08:50:41;;;;;;;14.00;8.10;;;11.40;99.90;;;;;;481597;244;28658;-73
2021/05/19 08:52:46;;;;;;;9.03;7.43;;;11.60;99.90;;;;;;487283;244;28539;-73
2021/05/19 08:54:44;;;;;;;13.87;6.90;;;11.70;99.90;;;;;;487333;244;28444;-74
2021/05/19 08:56:45;;;;;;;7.43;6.20;;;11.50;99.90;;;;;;487366;244;27964;-73
2021/05/19 08:58:46;;;;;;;7.90;6.50;;;11.20;99.90;;;;;;487373;244;28133;-73
2021/05/19 09:00:47;;;;;;;8.80;6.60;;;11.00;99.90;;;;;;487321;244;27944;-73
2021/05/19 09:02:49;;;;;;;12.80;7.77;;;11.20;99.90;;;;;;487317;244;28143;-73
2021/05/19 09:04:50;;;;;;;9.60;6.90;;;11.20;99.90;;;;;;487311;244;28401;-74
2021/05/19 09:06:52;;;;;;;8.40;6.40;;;11.20;99.90;;;;;;487292;244;28111;-73
2021/05/19 09:08:52;;;;;;;8.93;6.10;;;11.30;99.90;;;;;;487211;244;28306;-73
2021/05/19 09:10:54;;;;;;;10.70;7.03;;;11.30;99.90;;;;;;486317;244;28981;-73
2021/05/19 09:12:55;;;;;;;10.87;7.40;;;11.40;99.90;;;;;;485390;244;28784;-73
2021/05/19 09:15:00;;;;;;;12.93;6.60;;;11.30;99.90;;;;;;485339;244;28784;-73
2021/05/19 09:16:57;;;;;;;10.90;6.30;;;11.40;99.90;;;;;;485436;244;28209;-73
2021/05/19 09:18:59;;;;;;;8.20;5.77;;;11.50;99.90;;;;;;483039;238;28261;-73
2021/05/19 09:21:00;;;;;;;12.77;5.97;;;11.50;99.90;;;;;;491106;241;27976;-73
2021/05/19 09:23:02;;;;;;;10.17;5.07;;;11.40;99.90;;;;;;491076;241;28399;-73
2021/05/19 09:25:02;;;;;;;11.17;5.10;;;11.50;99.90;;;;;;491167;241;27930;-73
2021/05/19 09:27:05;;;;;;;9.07;5.73;;;;;;;;;;491099;241;28509;-73
2021/05/19 09:29:06;;;;;;;8.67;5.87;;;11.70;99.90;;;;;;491075;242;27546;-73
2021/05/19 09:31:07;;;;;;;9.40;5.20;;;11.80;99.90;;;;;;491095;241;28173;-73
2021/05/19 09:33:09;;;;;;;8.07;5.53;;;12.10;99.90;;;;;;491104;241;28066;-73
2021/05/19 09:35:10;;;;;;;7.57;5.17;;;12.20;99.90;;;;;;491066;241;28502;-73
2021/05/19 09:37:11;;;;;;;12.47;5.17;;;12.10;99.90;;;;;;491112;241;28622;-73
2021/05/19 09:39:12;;;;;;;10.60;5.17;;;12.20;99.90;;;;;;491105;241;28522;-73
2021/05/19 09:41:14;;;;;;;6.27;4.87;;;12.30;99.90;;;;;;491135;241;28130;-73
2021/05/19 09:43:15;;;;;;;9.97;5.17;;;12.80;99.90;;;;;;491125;241;28073;-73
2021/05/19 09:45:16;;;;;;;7.27;5.07;;;13.00;99.90;;;;;;491145;241;28243;-73
2021/05/19 09:47:18;;;;;;;5.70;4.57;;;13.10;99.90;;;;;;491108;241;28162;-73
2021/05/19 09:49:20;;;;;;;5.60;4.40;;;13.10;99.90;;;;;;491108;241;28194;-73
2021/05/19 09:51:21;;;;;;;8.67;4.83;;;12.90;99.90;;;;;;491116;241;28054;-74
2021/05/19 09:53:22;;;;;;;5.10;4.30;;;12.90;99.90;;;;;;491095;241;28688;-73
2021/05/19 09:55:23;;;;;;;7.90;4.40;;;12.90;99.90;;;;;;491145;241;28642;-72
2021/05/19 09:57:27;;;;;;;6.30;4.20;;;13.00;99.90;;;;;;491141;241;28620;-73
2021/05/19 09:59:26;;;;;;;6.47;3.57;;;13.30;99.90;;;;;;491100;241;28498;-74
2021/05/19 10:01:27;;;;;;;5.33;3.87;;;13.70;99.90;;;;;;491088;241;28413;-73
2021/05/19 10:03:28;;;;;;;7.40;4.30;;;13.50;99.90;;;;;;491092;241;28756;-74
2021/05/19 10:05:37;;;;;;;6.77;4.20;;;13.40;99.90;;;;;;490961;241;28710;-74
2021/05/19 10:07:34;;;;;;;6.17;3.63;;;13.20;99.90;;;;;;491116;241;28794;-73
2021/05/19 10:09:35;;;;;;;7.30;4.13;;;12.90;99.90;;;;;;491102;241;29153;-73
2021/05/19 10:11:36;;;;;;;6.90;3.83;;;12.90;99.90;;;;;;491100;241;28841;-73
2021/05/19 10:13:37;;;;;;;4.67;3.87;;;13.00;99.90;;;;;;491118;241;28724;-73
2021/05/19 10:15:39;;;;;;;4.70;3.70;;;13.20;99.90;;;;;;491145;241;28795;-73
2021/05/19 10:17:40;;;;;;;4.63;4.20;;;13.40;99.90;;;;;;491150;241;28777;-73
2021/05/19 10:19:41;;;;;;;9.43;4.30;;;13.50;99.90;;;;;;491096;240;28392;-73
2021/05/19 10:21:42;;;;;;;5.30;4.10;;;13.70;99.90;;;;;;491154;241;28408;-73
2021/05/19 10:23:44;;;;;;;5.07;4.30;;;13.60;99.90;;;;;;491103;241;28779;-73
2021/05/19 10:25:45;;;;;;;6.03;4.03;;;13.60;99.90;;;;;;491110;241;28767;-73
2021/05/19 10:27:46;;;;;;;9.43;5.23;;;13.80;99.90;;;;;;491134;241;28748;-73
2021/05/19 10:29:48;;;;;;;7.30;3.70;;;14.00;99.90;;;;;;491102;241;28676;-73
2021/05/19 10:31:49;;;;;;;7.23;3.83;;;14.10;99.90;;;;;;491099;241;28771;-73